Brookfield, Wisconsin
Current Conditions -  °F | °C
As of 6:45 AM on Saturday 25 Oct 2014 (Local Time) from KUES Reporting Station
Haze Haze  
Wind Chill: 54°   Ceiling: Unl
Heat Index: 54°   Visibility: 5mi
Dew Point: 52°   Wind: 9mph
Humidity: 94%   Direction: 260°W
Pressure: 29.89"   Gusts: NA
Location:  43.06°N, 88.13°W
Report Text: KUES 251145Z 26008KT 5SM BR SKC 12/11 A2989
Loading
Personal Weather Stations






























Interactive Weather Map New forecast layout! Learn more

10-Day Weather Forecast

Advertisements
Track Severe Weather on mobile